createdAt,value
2022-10-19T00:01:11.094Z,13.27
2022-10-19T00:03:40.280Z,13.25
2022-10-19T00:06:14.937Z,12.93
2022-10-19T00:08:43.498Z,13.65
2022-10-19T00:11:11.489Z,13.20
2022-10-19T00:13:39.623Z,11.52
2022-10-19T00:16:11.551Z,12.02
2022-10-19T00:18:39.465Z,12.32
2022-10-19T00:21:09.257Z,10.48
2022-10-19T00:23:38.709Z,9.85
2022-10-19T00:26:06.716Z,13.27
2022-10-19T00:28:36.206Z,12.75
2022-10-19T00:31:08.065Z,12.13
2022-10-19T00:33:36.973Z,11.45
2022-10-19T00:36:06.038Z,10.80
2022-10-19T00:38:33.752Z,10.70
2022-10-19T00:41:02.777Z,10.40
2022-10-19T00:43:31.647Z,11.30
2022-10-19T00:45:59.597Z,10.27
2022-10-19T00:48:31.835Z,11.05
2022-10-19T00:51:00.329Z,10.63
2022-10-19T00:53:30.699Z,9.75
2022-10-19T00:56:00.499Z,10.40
2022-10-19T00:58:30.282Z,10.02
2022-10-19T01:01:01.591Z,10.52
2022-10-19T01:03:29.557Z,9.52
2022-10-19T01:05:57.843Z,9.80
2022-10-19T01:08:26.294Z,9.82
2022-10-19T01:11:07.421Z,10.27
2022-10-19T01:13:47.138Z,10.43
2022-10-19T01:16:24.292Z,10.55
2022-10-19T01:19:02.183Z,10.77
2022-10-19T01:21:35.463Z,11.75
2022-10-19T01:24:38.359Z,12.30
2022-10-19T01:27:29.751Z,12.20
2022-10-19T01:30:02.987Z,14.23
2022-10-19T01:32:41.313Z,11.68
2022-10-19T01:35:17.692Z,13.77
2022-10-19T01:37:50.224Z,12.82
2022-10-19T01:40:25.783Z,13.32
2022-10-19T01:43:01.092Z,12.13
2022-10-19T01:45:35.709Z,13.40
2022-10-19T01:48:08.008Z,13.30
2022-10-19T01:50:40.807Z,12.80
2022-10-19T01:53:11.064Z,12.85
2022-10-19T01:55:42.934Z,12.50
2022-10-19T01:58:16.537Z,13.07
2022-10-19T02:00:48.728Z,13.15
2022-10-19T02:03:18.407Z,13.60
2022-10-19T02:05:48.297Z,12.68
2022-10-19T02:08:19.364Z,14.20
2022-10-19T02:10:48.585Z,13.57
2022-10-19T02:13:19.421Z,11.95
2022-10-19T02:15:52.880Z,10.63
2022-10-19T02:18:27.095Z,9.13
2022-10-19T02:20:55.397Z,7.75
2022-10-19T02:23:26.020Z,8.48
2022-10-19T02:30:58.973Z,10.48
2022-10-19T02:33:28.847Z,11.65
2022-10-19T02:35:58.722Z,9.73
2022-10-19T02:38:27.239Z,10.98
2022-10-19T02:41:02.910Z,11.27
2022-10-19T02:43:33.955Z,12.48
2022-10-19T02:46:07.518Z,12.05
2022-10-19T02:48:37.668Z,14.82
2022-10-19T02:51:05.756Z,14.18
2022-10-19T02:53:33.530Z,15.35
2022-10-19T02:56:01.567Z,15.75
2022-10-19T02:58:29.393Z,13.45
2022-10-19T03:00:57.086Z,14.60
2022-10-19T03:03:26.105Z,11.98
2022-10-19T03:05:55.669Z,11.90
2022-10-19T03:08:23.385Z,13.82
2022-10-19T03:10:51.412Z,14.27
2022-10-19T03:13:19.079Z,12.25
2022-10-19T03:15:47.996Z,11.98
2022-10-19T03:18:17.318Z,11.05
2022-10-19T03:20:46.703Z,11.00
2022-10-19T03:23:14.751Z,11.35
2022-10-19T03:25:42.802Z,10.80
2022-10-19T03:28:10.340Z,9.85
2022-10-19T03:30:43.200Z,8.68
2022-10-19T03:33:10.808Z,11.18
2022-10-19T03:35:39.166Z,13.05
2022-10-19T03:38:08.257Z,11.70
2022-10-19T03:40:37.069Z,10.02
2022-10-19T03:43:04.718Z,10.77
2022-10-19T03:45:33.209Z,10.80
2022-10-19T03:48:01.047Z,9.27
2022-10-19T03:50:28.578Z,10.40
2022-10-19T03:52:59.018Z,8.77
2022-10-19T03:55:30.046Z,9.90
2022-10-19T03:57:58.275Z,9.13
2022-10-19T04:00:25.881Z,8.43
2022-10-19T04:02:54.024Z,8.40
2022-10-19T04:05:21.626Z,9.02
2022-10-19T04:07:49.458Z,9.35
2022-10-19T04:10:17.147Z,10.35
2022-10-19T04:12:50.487Z,10.55
2022-10-19T04:15:21.421Z,10.30
2022-10-19T04:17:48.991Z,11.85
2022-10-19T04:20:17.622Z,12.30
2022-10-19T04:22:47.750Z,10.75
2022-10-19T04:25:15.739Z,13.60
2022-10-19T04:27:43.319Z,13.57
2022-10-19T04:30:12.900Z,13.70
2022-10-19T04:32:40.656Z,12.63
2022-10-19T04:35:10.263Z,12.40
2022-10-19T04:37:38.493Z,13.20
2022-10-19T04:40:11.490Z,10.02
2022-10-19T04:42:42.172Z,9.13
2022-10-19T04:45:12.075Z,9.40
2022-10-19T04:47:39.586Z,9.27
2022-10-19T04:50:07.692Z,9.73
2022-10-19T04:52:35.423Z,9.95
2022-10-19T04:55:03.147Z,12.35
2022-10-19T04:57:31.139Z,10.15
2022-10-19T04:59:58.925Z,12.05
2022-10-19T05:02:28.005Z,15.95
2022-10-19T05:04:55.632Z,17.30
2022-10-19T05:07:23.303Z,26.88
2022-10-19T05:09:55.868Z,29.08
2022-10-19T05:12:23.426Z,36.75
2022-10-19T05:14:51.047Z,37.42
2022-10-19T05:17:18.767Z,27.63
2022-10-19T05:19:48.302Z,25.08
2022-10-19T05:22:15.936Z,19.02
2022-10-19T05:24:43.575Z,18.77
2022-10-19T05:27:13.103Z,23.08
2022-10-19T05:29:40.762Z,27.65
2022-10-19T05:32:08.446Z,25.88
2022-10-19T05:34:36.180Z,19.75
2022-10-19T05:37:05.467Z,13.13
2022-10-19T05:39:33.802Z,12.15
2022-10-19T05:42:02.500Z,9.48
2022-10-19T05:44:30.531Z,10.93
2022-10-19T05:46:59.698Z,13.13
2022-10-19T05:49:27.550Z,15.95
2022-10-19T05:51:55.099Z,18.75
2022-10-19T05:54:28.914Z,22.30
2022-10-19T05:56:57.002Z,15.93
2022-10-19T05:59:24.647Z,11.88
2022-10-19T06:01:52.375Z,12.70
2022-10-19T06:04:20.034Z,11.57
2022-10-19T06:06:47.597Z,10.88
2022-10-19T06:09:15.764Z,11.88
2022-10-19T06:11:44.673Z,12.90
2022-10-19T06:14:15.521Z,12.95
2022-10-19T06:16:43.436Z,10.23
2022-10-19T06:19:11.132Z,10.55
2022-10-19T06:21:40.722Z,11.55
2022-10-19T06:24:12.863Z,11.25
2022-10-19T06:26:40.487Z,11.15
2022-10-19T06:29:09.909Z,10.35
2022-10-19T06:31:37.543Z,10.63
2022-10-19T06:34:05.643Z,10.73
2022-10-19T06:36:34.109Z,9.85
2022-10-19T06:39:02.161Z,12.85
2022-10-19T06:41:31.362Z,14.00
2022-10-19T06:43:59.226Z,12.05
2022-10-19T06:46:28.774Z,11.70
2022-10-19T06:48:58.362Z,10.70
2022-10-19T06:51:28.276Z,11.05
2022-10-19T06:53:57.542Z,11.82
2022-10-19T06:56:25.813Z,13.68
2022-10-19T06:58:54.066Z,11.45
2022-10-19T07:01:22.640Z,11.63
2022-10-19T07:03:52.796Z,12.13
2022-10-19T07:06:21.303Z,10.32
2022-10-19T07:08:49.134Z,11.73
2022-10-19T07:11:19.470Z,13.23
2022-10-19T07:13:47.378Z,10.43
2022-10-19T07:16:20.565Z,11.38
2022-10-19T07:18:52.433Z,13.15
2022-10-19T07:21:22.451Z,11.27
2022-10-19T07:23:50.405Z,10.80
2022-10-19T07:26:21.568Z,10.98
2022-10-19T07:28:49.818Z,11.05
2022-10-19T07:31:22.340Z,12.90
2022-10-19T07:33:53.753Z,10.65
2022-10-19T07:36:23.753Z,9.27
2022-10-19T07:38:51.733Z,8.10
2022-10-19T07:41:22.688Z,7.93
2022-10-19T07:43:51.418Z,6.78
2022-10-19T07:46:20.824Z,8.40
2022-10-19T07:48:49.282Z,7.13
2022-10-19T07:51:19.830Z,7.03
2022-10-19T07:53:47.761Z,8.00
2022-10-19T07:56:17.662Z,8.35
2022-10-19T07:58:45.773Z,7.80
2022-10-19T08:01:15.337Z,9.27
2022-10-19T08:04:31.738Z,8.38
2022-10-19T08:06:33.483Z,9.68
2022-10-19T08:09:01.097Z,8.77
2022-10-19T08:11:32.104Z,9.02
2022-10-19T08:14:01.650Z,8.90
2022-10-19T08:16:31.483Z,9.23
2022-10-19T08:19:01.158Z,8.90
2022-10-19T08:21:30.852Z,7.50
2022-10-19T08:24:00.504Z,8.27
2022-10-19T08:26:29.648Z,50.72
2022-10-19T08:29:00.089Z,15.60
2022-10-19T08:31:28.350Z,9.45
2022-10-19T08:33:55.931Z,28.90
2022-10-19T08:36:24.513Z,38.88
2022-10-19T08:38:52.173Z,18.73
2022-10-19T08:41:35.742Z,16.65
2022-10-19T08:44:24.038Z,10.75
2022-10-19T08:47:02.715Z,9.48
2022-10-19T08:49:32.516Z,12.77
2022-10-19T08:52:05.991Z,8.18
2022-10-19T08:57:28.751Z,8.48
2022-10-19T09:00:02.660Z,9.18
2022-10-19T09:02:42.345Z,7.85
2022-10-19T09:05:16.313Z,8.85
2022-10-19T09:07:44.296Z,9.88
2022-10-19T09:10:20.655Z,7.45
2022-10-19T09:12:58.484Z,8.73
2022-10-19T09:15:34.038Z,8.55
2022-10-19T09:18:02.589Z,8.90
2022-10-19T09:20:37.317Z,8.80
2022-10-19T09:23:13.583Z,9.05
2022-10-19T09:25:41.693Z,7.75
2022-10-19T09:28:31.561Z,7.88
2022-10-19T09:31:05.101Z,7.57
2022-10-19T09:33:38.456Z,7.95
2022-10-19T09:36:07.918Z,7.90
2022-10-19T09:38:35.905Z,7.75
2022-10-19T09:41:16.163Z,7.65
2022-10-19T09:43:50.716Z,8.50
2022-10-19T09:46:29.657Z,7.50
2022-10-19T09:49:00.364Z,7.93
2022-10-19T09:51:40.080Z,8.02
2022-10-19T09:54:23.859Z,8.02
2022-10-19T09:56:56.205Z,7.32
2022-10-19T09:59:30.373Z,11.02
2022-10-19T10:02:18.003Z,10.13
2022-10-19T10:04:47.358Z,18.17
2022-10-19T10:07:18.193Z,16.83
2022-10-19T10:09:46.355Z,66.18
2022-10-19T10:12:15.768Z,18.33
2022-10-19T10:14:53.927Z,9.88
2022-10-19T10:17:28.115Z,9.73
2022-10-19T10:20:06.935Z,9.32
2022-10-19T10:22:37.316Z,8.40
2022-10-19T10:25:16.432Z,8.23
2022-10-19T10:27:55.849Z,15.88
2022-10-19T10:30:29.005Z,30.23
2022-10-19T10:33:04.672Z,30.75
2022-10-19T10:35:48.735Z,13.73
2022-10-19T10:38:21.909Z,25.25
2022-10-19T10:40:51.885Z,27.00
2022-10-19T10:43:25.191Z,13.25
2022-10-19T10:46:03.984Z,11.40
2022-10-19T10:48:36.297Z,8.20
2022-10-19T10:51:10.528Z,11.80
2022-10-19T10:53:40.563Z,8.80
2022-10-19T10:56:23.036Z,12.13
2022-10-19T10:58:57.701Z,14.23
2022-10-19T11:01:33.332Z,46.33
2022-10-19T11:04:04.886Z,17.80
2022-10-19T11:06:39.551Z,37.90
2022-10-19T11:09:17.612Z,23.23
2022-10-19T11:11:47.667Z,9.88
2022-10-19T11:14:36.115Z,41.10
2022-10-19T11:17:12.719Z,10.90
2022-10-19T11:19:44.133Z,10.25
2022-10-19T11:22:23.586Z,9.68
2022-10-19T11:25:06.965Z,9.60
2022-10-19T11:27:49.951Z,11.00
2022-10-19T11:30:20.444Z,11.05
2022-10-19T11:33:01.490Z,9.57
2022-10-19T11:35:44.769Z,8.85
2022-10-19T11:38:29.633Z,8.88
2022-10-19T11:41:22.600Z,9.05
2022-10-19T11:44:02.737Z,9.27
2022-10-19T11:46:38.550Z,9.40
2022-10-19T11:49:20.619Z,8.85
2022-10-19T11:51:55.605Z,10.57
2022-10-19T11:54:35.821Z,10.45
2022-10-19T11:57:13.422Z,9.57
2022-10-19T12:00:03.716Z,10.95
2022-10-19T12:03:17.779Z,10.77
2022-10-19T12:05:59.270Z,11.15
2022-10-19T12:11:08.873Z,11.20
2022-10-19T12:13:44.534Z,10.00
2022-10-19T12:16:14.374Z,12.10
2022-10-19T12:18:47.745Z,11.57
2022-10-19T12:21:23.417Z,10.73
2022-10-19T12:23:52.317Z,11.60
2022-10-19T12:26:22.032Z,11.32
2022-10-19T12:28:53.908Z,10.80
2022-10-19T12:31:22.767Z,12.38
2022-10-19T12:33:59.461Z,11.65
2022-10-19T12:36:38.860Z,11.60
2022-10-19T12:39:16.015Z,13.05
2022-10-19T12:41:48.689Z,12.43
2022-10-19T12:44:57.874Z,13.00
2022-10-19T12:47:27.095Z,13.02
2022-10-19T12:49:55.746Z,13.98
2022-10-19T12:52:40.741Z,13.52
2022-10-19T12:55:27.907Z,13.90
2022-10-19T12:58:05.459Z,14.32
2022-10-19T13:00:35.243Z,14.05
2022-10-19T13:03:07.527Z,15.35
2022-10-19T13:05:36.160Z,13.87
2022-10-19T13:08:10.636Z,14.02
2022-10-19T13:10:41.577Z,13.57
2022-10-19T13:13:45.452Z,15.73
2022-10-19T13:16:46.539Z,17.77
2022-10-19T13:19:21.791Z,15.60
2022-10-19T13:22:06.078Z,15.00
2022-10-19T13:24:37.394Z,15.32
2022-10-19T13:27:36.872Z,17.23
2022-10-19T13:30:06.297Z,16.58
2022-10-19T13:32:43.578Z,15.68
2022-10-19T13:35:31.100Z,17.20
2022-10-19T13:38:31.917Z,16.70
2022-10-19T13:41:19.571Z,17.83
2022-10-19T13:43:56.398Z,17.23
2022-10-19T13:46:53.929Z,17.45
2022-10-19T13:49:36.252Z,16.92
2022-10-19T13:52:19.796Z,16.83
2022-10-19T13:55:05.392Z,16.23
2022-10-19T13:57:55.317Z,16.67
2022-10-19T14:00:27.196Z,17.00
2022-10-19T14:03:03.588Z,16.13
2022-10-19T14:06:11.692Z,16.45
2022-10-19T14:09:25.426Z,16.15
2022-10-19T14:12:02.515Z,17.55
2022-10-19T14:17:15.927Z,17.38
2022-10-19T14:19:47.372Z,15.13
2022-10-19T14:22:26.477Z,13.80
2022-10-19T14:25:00.827Z,14.10
2022-10-19T14:27:30.180Z,13.13
2022-10-19T14:30:02.758Z,14.52
2022-10-19T14:32:34.368Z,14.70
2022-10-19T14:37:42.684Z,14.40
2022-10-19T14:40:27.904Z,14.00
2022-10-19T14:42:57.105Z,12.73
2022-10-19T14:45:29.169Z,12.32
2022-10-19T14:48:00.210Z,11.63
2022-10-19T14:50:40.216Z,12.82
2022-10-19T14:53:32.726Z,12.57
2022-10-19T14:56:06.104Z,12.85
2022-10-19T14:58:39.736Z,13.80
2022-10-19T15:01:10.718Z,14.85
2022-10-19T15:06:19.477Z,15.15
2022-10-19T15:08:51.738Z,22.77
2022-10-19T15:11:26.146Z,26.67
2022-10-19T15:14:00.686Z,17.27
2022-10-19T15:16:41.313Z,13.00
2022-10-19T15:19:18.226Z,12.32
2022-10-19T15:22:05.943Z,13.57
2022-10-19T15:24:33.907Z,11.55
2022-10-19T15:27:09.693Z,11.82
2022-10-19T15:29:37.789Z,10.50
2022-10-19T15:32:21.681Z,12.23
2022-10-19T15:34:49.469Z,20.35
2022-10-19T15:37:24.102Z,18.27
2022-10-19T15:39:52.984Z,14.90
2022-10-19T15:42:36.859Z,13.90
2022-10-19T15:45:25.345Z,12.95
2022-10-19T15:48:25.336Z,11.90
2022-10-19T15:50:54.192Z,10.93
2022-10-19T15:53:22.912Z,13.57
2022-10-19T15:55:50.738Z,15.15
2022-10-19T15:58:18.519Z,13.05
2022-10-19T16:00:46.660Z,10.38
2022-10-19T16:03:15.794Z,9.88
2022-10-19T16:05:49.168Z,12.07
2022-10-19T16:08:16.865Z,10.93
2022-10-19T16:10:44.636Z,14.20
2022-10-19T16:13:12.300Z,10.45
2022-10-19T16:15:41.241Z,7.97
2022-10-19T16:18:11.319Z,10.48
2022-10-19T16:20:43.294Z,9.02
2022-10-19T16:23:11.452Z,12.68
2022-10-19T16:25:39.192Z,9.90
2022-10-19T16:28:06.747Z,6.38
2022-10-19T16:30:34.719Z,6.72
2022-10-19T16:33:02.537Z,20.30
2022-10-19T16:35:31.280Z,9.32
2022-10-19T16:38:00.293Z,11.38
2022-10-19T16:40:28.149Z,11.90
2022-10-19T16:42:56.182Z,7.50
2022-10-19T16:45:24.025Z,17.35
2022-10-19T16:47:51.793Z,12.02
2022-10-19T16:50:19.641Z,9.90
2022-10-19T16:52:47.539Z,10.85
2022-10-19T16:55:16.736Z,7.72
2022-10-19T16:57:45.329Z,13.93
2022-10-19T17:00:13.426Z,12.50
2022-10-19T17:02:45.697Z,13.27
2022-10-19T17:05:14.483Z,12.73
2022-10-19T17:07:42.356Z,17.83
2022-10-19T17:10:10.398Z,23.02
2022-10-19T17:12:41.442Z,14.20
2022-10-19T17:18:00.405Z,10.95
2022-10-19T17:20:27.977Z,7.78
2022-10-19T17:22:55.570Z,7.57
2022-10-19T17:25:23.227Z,6.72
2022-10-19T17:27:53.391Z,5.88
2022-10-19T17:30:21.119Z,7.38
2022-10-19T17:32:48.784Z,8.43
2022-10-19T17:35:16.556Z,9.10
2022-10-19T17:37:44.222Z,10.82
2022-10-19T17:40:13.080Z,9.88
2022-10-19T17:42:41.122Z,8.60
2022-10-19T17:45:11.246Z,7.95
2022-10-19T17:47:39.378Z,8.15
2022-10-19T17:50:08.920Z,8.18
2022-10-19T17:52:36.982Z,7.72
2022-10-19T17:55:12.249Z,7.60
2022-10-19T17:57:40.423Z,8.93
2022-10-19T18:00:11.393Z,9.18
2022-10-19T18:02:39.483Z,8.38
2022-10-19T18:05:07.814Z,8.63
2022-10-19T18:07:35.623Z,7.28
2022-10-19T18:10:03.770Z,7.18
2022-10-19T18:12:35.391Z,7.78
2022-10-19T18:15:03.291Z,10.20
2022-10-19T18:17:33.334Z,11.60
2022-10-19T18:20:00.937Z,12.50
2022-10-19T18:22:28.811Z,14.90
2022-10-19T18:24:56.463Z,12.38
2022-10-19T18:27:24.315Z,12.13
2022-10-19T18:29:53.209Z,11.68
2022-10-19T18:32:21.188Z,11.13
2022-10-19T18:34:50.467Z,11.00
2022-10-19T18:37:18.214Z,11.77
2022-10-19T18:39:46.760Z,13.73
2022-10-19T18:42:14.533Z,12.50
2022-10-19T18:44:42.657Z,12.93
2022-10-19T18:47:10.264Z,11.35
2022-10-19T18:49:37.883Z,12.82
2022-10-19T18:52:06.912Z,12.10
2022-10-19T18:54:34.498Z,11.90
2022-10-19T18:57:02.378Z,11.07
2022-10-19T18:59:30.754Z,11.60
2022-10-19T19:01:58.423Z,12.45
2022-10-19T19:04:26.232Z,12.35
2022-10-19T19:06:54.813Z,11.40
2022-10-19T19:09:23.868Z,12.07
2022-10-19T19:11:51.948Z,12.95
2022-10-19T19:14:19.884Z,12.68
2022-10-19T19:16:47.988Z,14.25
2022-10-19T19:19:17.051Z,19.88
2022-10-19T19:21:46.097Z,17.25
2022-10-19T19:24:15.698Z,31.88
2022-10-19T19:26:50.463Z,88.68
2022-10-19T19:29:20.165Z,76.03
2022-10-19T19:31:48.682Z,43.72
2022-10-19T19:34:17.289Z,31.80
2022-10-19T19:36:45.598Z,21.90
2022-10-19T19:39:13.667Z,17.30
2022-10-19T19:41:42.033Z,17.15
2022-10-19T19:44:11.284Z,17.65
2022-10-19T19:46:40.010Z,13.98
2022-10-19T19:49:07.702Z,13.07
2022-10-19T19:51:36.126Z,16.90
2022-10-19T19:54:04.465Z,25.42
2022-10-19T19:56:32.552Z,58.20
2022-10-19T19:59:01.318Z,45.92
2022-10-19T20:01:31.319Z,52.58
2022-10-19T20:03:59.652Z,52.42
2022-10-19T20:06:27.725Z,104.32
2022-10-19T20:08:56.586Z,77.93
2022-10-19T20:11:26.990Z,81.35
2022-10-19T20:13:55.487Z,39.78
2022-10-19T20:16:28.212Z,56.92
2022-10-19T20:19:01.170Z,35.15
2022-10-19T20:21:29.132Z,17.75
2022-10-19T20:23:57.756Z,17.92
2022-10-19T20:26:26.074Z,19.90
2022-10-19T20:28:53.788Z,29.13
2022-10-19T20:31:21.892Z,30.90
2022-10-19T20:33:50.472Z,25.33
2022-10-19T20:36:21.336Z,18.27
2022-10-19T20:41:19.605Z,13.68
2022-10-19T20:43:47.249Z,13.90
2022-10-19T20:46:17.864Z,11.05
2022-10-19T20:48:46.210Z,11.65
2022-10-19T20:51:16.034Z,9.88
2022-10-19T20:53:47.207Z,11.07
2022-10-19T20:56:16.842Z,9.20
2022-10-19T20:58:44.850Z,9.82
2022-10-19T21:01:15.293Z,9.43
2022-10-19T21:03:46.399Z,8.50
2022-10-19T21:06:14.607Z,9.10
2022-10-19T21:08:42.557Z,8.85
2022-10-19T21:11:16.643Z,8.45
2022-10-19T21:13:45.347Z,8.13
2022-10-19T21:16:15.639Z,7.60
2022-10-19T21:18:45.086Z,7.53
2022-10-19T21:21:14.385Z,7.78
2022-10-19T21:23:42.442Z,7.88
2022-10-19T21:26:10.398Z,8.10
2022-10-19T21:28:44.978Z,9.80
2022-10-19T21:31:13.042Z,9.30
2022-10-19T21:33:41.010Z,7.95
2022-10-19T21:36:09.362Z,8.05
2022-10-19T21:38:37.198Z,8.45
2022-10-19T21:41:07.246Z,8.50
2022-10-19T21:43:35.626Z,8.40
2022-10-19T21:46:06.875Z,7.70
2022-10-19T21:48:35.230Z,7.00
2022-10-19T21:51:16.527Z,7.65
2022-10-19T21:53:44.295Z,7.80
2022-10-19T21:56:11.911Z,6.70
2022-10-19T21:58:44.834Z,5.88
2022-10-19T22:01:17.095Z,7.35
2022-10-19T22:03:45.201Z,6.47
2022-10-19T22:06:13.507Z,6.18
2022-10-19T22:08:45.286Z,6.20
2022-10-19T22:11:14.317Z,6.40
2022-10-19T22:13:43.026Z,6.18
2022-10-19T22:16:13.148Z,5.93
2022-10-19T22:18:43.345Z,7.30
2022-10-19T22:21:12.807Z,7.00
2022-10-19T22:23:40.958Z,6.82
2022-10-19T22:26:13.567Z,6.30
2022-10-19T22:28:41.075Z,5.90
2022-10-19T22:31:09.317Z,5.75
2022-10-19T22:33:37.711Z,6.43
2022-10-19T22:36:08.825Z,5.45
2022-10-19T22:38:38.163Z,6.10
2022-10-19T22:41:43.285Z,5.85
2022-10-19T22:44:47.864Z,5.90
2022-10-19T22:47:53.007Z,5.70
2022-10-19T22:50:57.438Z,5.65
2022-10-19T22:53:26.616Z,5.43
2022-10-19T22:55:54.798Z,7.22
2022-10-19T22:58:22.357Z,7.10
2022-10-19T23:01:02.057Z,6.95
2022-10-19T23:03:30.312Z,8.93
2022-10-19T23:05:57.927Z,7.85
2022-10-19T23:08:27.339Z,8.57
2022-10-19T23:10:55.288Z,8.50
2022-10-19T23:13:23.112Z,9.45
2022-10-19T23:15:50.785Z,8.80
2022-10-19T23:18:21.628Z,9.18
2022-10-19T23:20:53.996Z,9.55
2022-10-19T23:23:22.160Z,8.98
2022-10-19T23:26:02.929Z,7.70
2022-10-19T23:28:32.237Z,7.15
2022-10-19T23:31:04.404Z,7.25
2022-10-19T23:33:33.816Z,7.45
2022-10-19T23:36:03.840Z,6.95
2022-10-19T23:38:31.626Z,6.80
2022-10-19T23:41:00.981Z,5.82
2022-10-19T23:43:28.623Z,5.70
2022-10-19T23:45:56.330Z,6.30
2022-10-19T23:48:24.980Z,5.82
2022-10-19T23:51:00.293Z,5.90
2022-10-19T23:53:29.963Z,5.43
2022-10-19T23:56:04.366Z,8.10
2022-10-19T23:58:34.728Z,5.50
